Terminal Aerodrome Forecast
Issued by NWS

Current Version | Previous Version | Text Only | Print | Product List | Glossary On
Versions: 1 2 3 4 5 6 7 8 9 10 11 12 13 14 15 16
000
FTAK31 PAJN 010500
TAFAPG
TAF
PAPG 010526Z 0106/0206 23005KT P6SM VCSH SCT050 BKN070
     FM010900 20003KT P6SM BCFG FEW005 SCT040 BKN050
     FM011000 VRB02KT 3SM BR SCT005 BKN060
     FM011700 05005KT P6SM SCT060
     FM020200 10004KT P6SM SCT070
      AMD LTD TO CLD VIS AND WIND TIL 011500=

USA.gov is the U.S. government's official web portal to all federal, state and local government web resources and services.